createdAt,value
2022-12-25T00:00:32.766Z,101054.59
2022-12-25T00:02:59.977Z,101053.91
2022-12-25T00:05:26.719Z,101053.66
2022-12-25T00:07:53.275Z,101049.00
2022-12-25T00:10:20.136Z,101052.44
2022-12-25T00:12:46.669Z,101052.44
2022-12-25T00:15:13.192Z,101043.72
2022-12-25T00:17:39.794Z,101049.66
2022-12-25T00:20:07.170Z,101048.16
2022-12-25T00:22:33.763Z,101058.78
2022-12-25T00:25:00.564Z,101066.78
2022-12-25T00:27:27.310Z,101069.81
2022-12-25T00:29:53.853Z,101084.78
2022-12-25T00:32:23.022Z,101085.28
2022-12-25T00:34:49.561Z,101093.84
2022-12-25T00:37:18.542Z,101081.22
2022-12-25T00:39:45.131Z,101079.19
2022-12-25T00:42:20.431Z,101089.47
2022-12-25T00:44:49.210Z,101089.81
2022-12-25T00:47:16.608Z,101083.94
2022-12-25T00:49:43.463Z,101084.97
2022-12-25T00:52:10.549Z,101095.03
2022-12-25T00:54:37.740Z,101087.59
2022-12-25T00:57:04.509Z,101090.97
2022-12-25T00:59:32.701Z,101087.59
2022-12-25T01:02:23.089Z,101089.09
2022-12-25T01:04:54.612Z,101091.47
2022-12-25T01:07:22.930Z,101103.16
2022-12-25T01:10:08.091Z,101102.97
2022-12-25T01:12:37.310Z,101109.66
2022-12-25T01:15:10.398Z,101117.50
2022-12-25T01:17:37.017Z,101116.19
2022-12-25T01:20:04.317Z,101107.63
2022-12-25T01:22:33.392Z,101107.03
2022-12-25T01:24:59.931Z,101104.19
2022-12-25T01:27:26.459Z,101097.47
2022-12-25T01:29:52.998Z,101103.19
2022-12-25T01:32:19.583Z,101098.69
2022-12-25T01:34:53.769Z,101096.22
2022-12-25T01:37:22.441Z,101092.38
2022-12-25T01:39:52.368Z,101097.63
2022-12-25T01:42:21.530Z,101102.78
2022-12-25T01:44:48.564Z,101109.94
2022-12-25T01:47:16.941Z,101113.56
2022-12-25T01:49:46.770Z,101109.50
2022-12-25T01:52:23.888Z,101117.25
2022-12-25T01:54:57.969Z,101117.16
2022-12-25T01:57:36.729Z,101115.38
2022-12-25T02:00:04.479Z,101125.84
2022-12-25T02:02:31.388Z,101118.88
2022-12-25T02:05:01.668Z,101108.22
2022-12-25T02:07:29.007Z,101116.22
2022-12-25T02:09:55.606Z,101120.59
2022-12-25T02:12:33.352Z,101127.00
2022-12-25T02:15:07.417Z,101126.81
2022-12-25T02:18:00.477Z,101125.84
2022-12-25T02:20:39.250Z,101112.09
2022-12-25T02:23:55.718Z,101113.34
2022-12-25T02:26:49.580Z,101112.53
2022-12-25T02:29:23.638Z,101109.13
2022-12-25T02:32:13.014Z,101115.34
2022-12-25T02:35:02.570Z,101114.25
2022-12-25T02:37:52.775Z,101121.97
2022-12-25T02:40:25.841Z,101116.94
2022-12-25T02:43:25.017Z,101119.78
2022-12-25T02:46:31.708Z,101119.00
2022-12-25T02:49:21.366Z,101116.66
2022-12-25T02:52:53.024Z,101110.91
2022-12-25T02:55:43.057Z,101114.31
2022-12-25T02:58:32.839Z,101117.16
2022-12-25T03:01:24.912Z,101125.63
2022-12-25T03:04:15.925Z,101125.59
2022-12-25T03:07:11.382Z,101122.47
2022-12-25T03:10:20.480Z,101129.44
2022-12-25T03:12:54.192Z,101116.56
2022-12-25T03:15:39.876Z,101108.56
2022-12-25T03:18:12.934Z,101109.88
2022-12-25T03:20:58.023Z,101116.31
2022-12-25T03:23:48.653Z,101110.63
2022-12-25T03:26:34.256Z,101113.41
2022-12-25T03:29:00.957Z,101131.22
2022-12-25T03:31:48.215Z,101134.84
2022-12-25T03:35:06.529Z,101128.13
2022-12-25T03:38:07.577Z,101135.59
2022-12-25T03:41:10.850Z,101140.53
2022-12-25T03:44:21.435Z,101138.38
2022-12-25T03:47:13.057Z,101150.50
2022-12-25T03:50:05.129Z,101156.63
2022-12-25T03:52:50.720Z,101151.13
2022-12-25T03:55:36.274Z,101155.84
2022-12-25T03:58:21.730Z,101164.22
2022-12-25T04:01:06.588Z,101164.69
2022-12-25T04:03:51.773Z,101171.84
2022-12-25T04:06:38.415Z,101179.56
2022-12-25T04:09:23.587Z,101172.66
2022-12-25T04:12:10.133Z,101160.25
2022-12-25T04:14:55.460Z,101165.88
2022-12-25T04:17:40.340Z,101174.53
2022-12-25T04:20:26.190Z,101178.38
2022-12-25T04:23:11.672Z,101182.94
2022-12-25T04:25:56.565Z,101188.22
2022-12-25T04:28:42.379Z,101170.75
2022-12-25T04:31:27.895Z,101181.16
2022-12-25T04:34:14.458Z,101187.19
2022-12-25T04:36:41.026Z,101186.56
2022-12-25T04:39:11.019Z,101181.69
2022-12-25T04:41:40.458Z,101178.69
2022-12-25T04:44:07.034Z,101187.13
2022-12-25T04:46:33.617Z,101178.38
2022-12-25T04:49:01.275Z,101177.13
2022-12-25T04:51:28.135Z,101175.53
2022-12-25T04:53:54.832Z,101182.56
2022-12-25T04:56:21.941Z,101180.69
2022-12-25T04:58:50.951Z,101176.84
2022-12-25T05:01:19.396Z,101172.72
2022-12-25T05:03:46.089Z,101188.28
2022-12-25T05:06:12.802Z,101191.53
2022-12-25T05:08:39.358Z,101185.31
2022-12-25T05:11:12.677Z,101175.81
2022-12-25T05:13:39.390Z,101190.03
2022-12-25T05:16:08.481Z,101194.53
2022-12-25T05:18:35.476Z,101202.00
2022-12-25T05:21:05.296Z,101198.91
2022-12-25T05:23:33.006Z,101196.47
2022-12-25T05:26:01.847Z,101192.38
2022-12-25T05:28:28.663Z,101189.59
2022-12-25T05:31:00.000Z,101192.84
2022-12-25T05:33:26.664Z,101185.31
2022-12-25T05:35:53.260Z,101184.69
2022-12-25T05:38:19.807Z,101192.38
2022-12-25T05:40:47.523Z,101195.13
2022-12-25T05:43:14.209Z,101197.97
2022-12-25T05:45:40.724Z,101196.75
2022-12-25T05:48:07.238Z,101193.72
2022-12-25T05:50:37.637Z,101190.03
2022-12-25T05:53:09.398Z,101187.66
2022-12-25T05:55:40.989Z,101192.03
2022-12-25T05:58:08.351Z,101194.91
2022-12-25T06:00:34.953Z,101204.31
2022-12-25T06:03:02.662Z,101214.16
2022-12-25T06:05:29.369Z,101225.72
2022-12-25T06:07:56.448Z,101222.28
2022-12-25T06:10:24.312Z,101219.16
2022-12-25T06:12:50.827Z,101219.09
2022-12-25T06:15:17.429Z,101221.25
2022-12-25T06:17:43.991Z,101216.41
2022-12-25T06:20:10.725Z,101225.31
2022-12-25T06:22:38.468Z,101224.53
2022-12-25T06:25:05.690Z,101218.06
2022-12-25T06:27:32.219Z,101223.63
2022-12-25T06:29:59.991Z,101227.88
2022-12-25T06:32:27.038Z,101235.94
2022-12-25T06:34:53.823Z,101243.47
2022-12-25T06:37:25.507Z,101240.19
2022-12-25T06:39:54.808Z,101242.25
2022-12-25T06:42:21.381Z,101255.28
2022-12-25T06:44:48.226Z,101256.56
2022-12-25T06:47:14.841Z,101269.91
2022-12-25T06:49:42.026Z,101268.59
2022-12-25T06:52:08.838Z,101270.94
2022-12-25T06:54:37.554Z,101269.31
2022-12-25T06:57:05.384Z,101273.16
2022-12-25T06:59:32.253Z,101275.00
2022-12-25T07:01:59.271Z,101281.22
2022-12-25T07:04:37.062Z,101276.19
2022-12-25T07:07:09.051Z,101274.28
2022-12-25T07:09:39.463Z,101288.03
2022-12-25T07:12:06.998Z,101287.03
2022-12-25T07:14:33.527Z,101283.72
2022-12-25T07:17:00.177Z,101282.69
2022-12-25T07:19:27.016Z,101289.19
2022-12-25T07:21:53.533Z,101303.91
2022-12-25T07:24:21.610Z,101308.03
2022-12-25T07:26:50.961Z,101306.91
2022-12-25T07:29:19.543Z,101325.53
2022-12-25T07:31:46.840Z,101327.59
2022-12-25T07:34:13.383Z,101337.56
2022-12-25T07:36:39.906Z,101333.91
2022-12-25T07:39:06.418Z,101339.84
2022-12-25T07:41:33.520Z,101341.19
2022-12-25T07:44:00.099Z,101350.06
2022-12-25T07:46:27.147Z,101350.22
2022-12-25T07:48:55.360Z,101355.00
2022-12-25T07:51:21.953Z,101348.63
2022-12-25T07:53:48.523Z,101351.28
2022-12-25T07:56:17.250Z,101351.06
2022-12-25T07:58:46.302Z,101351.94
2022-12-25T08:01:21.855Z,101350.09
2022-12-25T08:03:54.700Z,101345.72
2022-12-25T08:06:23.266Z,101340.38
2022-12-25T08:08:50.065Z,101350.22
2022-12-25T08:11:16.849Z,101362.97
2022-12-25T08:13:45.967Z,101359.38
2022-12-25T08:16:13.067Z,101360.56
2022-12-25T08:18:40.604Z,101360.13
2022-12-25T08:21:09.930Z,101357.84
2022-12-25T08:23:40.595Z,101356.56
2022-12-25T08:26:11.032Z,101363.22
2022-12-25T08:28:39.054Z,101363.28
2022-12-25T08:31:10.573Z,101359.78
2022-12-25T08:33:37.951Z,101367.19
2022-12-25T08:36:06.725Z,101366.00
2022-12-25T08:38:33.913Z,101364.66
2022-12-25T08:41:00.510Z,101367.19
2022-12-25T08:43:27.158Z,101364.72
2022-12-25T08:45:53.732Z,101366.16
2022-12-25T08:48:20.356Z,101362.88
2022-12-25T08:50:48.816Z,101353.91
2022-12-25T08:53:15.743Z,101367.06
2022-12-25T08:55:42.400Z,101354.34
2022-12-25T08:58:09.667Z,101353.88
2022-12-25T09:00:36.691Z,101355.47
2022-12-25T09:03:06.565Z,101356.13
2022-12-25T09:05:37.392Z,101350.22
2022-12-25T09:08:04.273Z,101361.31
2022-12-25T09:10:31.012Z,101369.84
2022-12-25T09:12:57.569Z,101379.78
2022-12-25T09:15:25.260Z,101377.03
2022-12-25T09:17:52.477Z,101390.69
2022-12-25T09:20:21.758Z,101394.84
2022-12-25T09:22:49.437Z,101396.63
2022-12-25T09:25:16.093Z,101396.13
2022-12-25T09:27:43.641Z,101388.88
2022-12-25T09:30:10.999Z,101403.25
2022-12-25T09:32:41.985Z,101381.22
2022-12-25T09:35:09.656Z,101379.66
2022-12-25T09:37:41.352Z,101384.28
2022-12-25T09:40:08.665Z,101385.66
2022-12-25T09:42:35.315Z,101366.34
2022-12-25T09:45:07.099Z,101370.28
2022-12-25T09:47:36.058Z,101378.34
2022-12-25T09:51:04.431Z,101385.56
2022-12-25T09:53:40.656Z,101390.47
2022-12-25T09:56:11.549Z,101384.91
2022-12-25T09:58:40.617Z,101388.81
2022-12-25T10:01:39.171Z,101393.28
2022-12-25T10:04:27.657Z,101396.88
2022-12-25T10:07:06.286Z,101400.59
2022-12-25T10:09:45.415Z,101399.38
2022-12-25T10:12:50.514Z,101397.06
2022-12-25T10:15:30.700Z,101395.31
2022-12-25T10:18:25.115Z,101399.38
2022-12-25T10:20:53.950Z,101389.34
2022-12-25T10:23:32.675Z,101397.34
2022-12-25T10:25:59.292Z,101391.75
2022-12-25T10:28:34.272Z,101386.53
2022-12-25T10:31:21.221Z,101388.38
2022-12-25T10:33:49.689Z,101382.28
2022-12-25T10:36:19.641Z,101379.56
2022-12-25T10:38:47.448Z,101377.03
2022-12-25T10:41:27.563Z,101376.84
2022-12-25T10:43:56.284Z,101377.59
2022-12-25T10:46:26.228Z,101380.19
2022-12-25T10:48:58.825Z,101368.91
2022-12-25T10:51:34.916Z,101370.31
2022-12-25T10:54:26.141Z,101372.94
2022-12-25T10:56:57.257Z,101364.31
2022-12-25T10:59:25.940Z,101367.19
2022-12-25T11:01:55.401Z,101363.72
2022-12-25T11:04:28.500Z,101361.81
2022-12-25T11:07:18.259Z,101362.25
2022-12-25T11:10:05.356Z,101368.38
2022-12-25T11:12:43.396Z,101371.47
2022-12-25T11:16:04.634Z,101382.13
2022-12-25T11:18:50.914Z,101380.66
2022-12-25T11:21:31.703Z,101376.31
2022-12-25T11:24:01.381Z,101370.19
2022-12-25T11:26:29.703Z,101367.38
2022-12-25T11:28:56.478Z,101362.97
2022-12-25T11:31:30.535Z,101355.47
2022-12-25T11:34:05.682Z,101351.06
2022-12-25T11:36:49.612Z,101354.72
2022-12-25T11:39:30.692Z,101342.81
2022-12-25T11:42:03.255Z,101348.25
2022-12-25T11:44:45.491Z,101342.03
2022-12-25T11:47:35.303Z,101338.16
2022-12-25T11:50:31.140Z,101341.78
2022-12-25T11:53:02.620Z,101351.09
2022-12-25T11:55:41.897Z,101351.84
2022-12-25T11:58:39.171Z,101356.50
2022-12-25T12:01:15.923Z,101352.38
2022-12-25T12:03:43.186Z,101353.38
2022-12-25T12:06:28.330Z,101341.72
2022-12-25T12:09:05.559Z,101348.78
2022-12-25T12:12:17.598Z,101356.72
2022-12-25T12:15:49.047Z,101354.13
2022-12-25T12:18:15.597Z,101364.72
2022-12-25T12:20:42.241Z,101368.88
2022-12-25T12:23:14.607Z,101370.94
2022-12-25T12:25:44.897Z,101368.31
2022-12-25T12:28:22.040Z,101378.41
2022-12-25T12:31:00.436Z,101382.06
2022-12-25T12:33:31.561Z,101381.75
2022-12-25T12:35:58.358Z,101398.09
2022-12-25T12:38:25.528Z,101401.88
2022-12-25T12:40:54.422Z,101407.56
2022-12-25T12:43:38.302Z,101407.56
2022-12-25T12:46:49.614Z,101400.50
2022-12-25T12:49:26.750Z,101393.00
2022-12-25T12:52:08.210Z,101392.72
2022-12-25T12:54:51.797Z,101389.09
2022-12-25T12:57:27.139Z,101395.13
2022-12-25T12:59:54.954Z,101394.88
2022-12-25T13:02:44.740Z,101392.03
2022-12-25T13:05:14.413Z,101385.84
2022-12-25T13:07:50.149Z,101383.53
2022-12-25T13:10:29.094Z,101383.06
2022-12-25T13:12:59.980Z,101372.69
2022-12-25T13:15:29.349Z,101384.94
2022-12-25T13:18:02.576Z,101382.16
2022-12-25T13:20:41.596Z,101392.84
2022-12-25T13:23:16.233Z,101393.84
2022-12-25T13:25:45.461Z,101388.66
2022-12-25T13:28:14.687Z,101390.75
2022-12-25T13:30:41.408Z,101392.81
2022-12-25T13:33:14.966Z,101376.69
2022-12-25T13:35:44.735Z,101377.69
2022-12-25T13:38:20.000Z,101382.34
2022-12-25T13:41:15.388Z,101384.41
2022-12-25T13:43:43.541Z,101386.50
2022-12-25T13:46:14.730Z,101378.97
2022-12-25T13:48:42.464Z,101374.09
2022-12-25T13:51:14.910Z,101371.50
2022-12-25T13:53:41.570Z,101378.22
2022-12-25T13:56:13.726Z,101377.97
2022-12-25T13:58:40.399Z,101378.00
2022-12-25T14:01:11.192Z,101379.31
2022-12-25T14:03:42.726Z,101385.63
2022-12-25T14:06:20.167Z,101400.38
2022-12-25T14:08:47.655Z,101393.06
2022-12-25T14:11:20.677Z,101401.34
2022-12-25T14:13:49.208Z,101387.06
2022-12-25T14:16:17.747Z,101396.66
2022-12-25T14:18:58.562Z,101399.50
2022-12-25T14:21:32.621Z,101402.06
2022-12-25T14:23:59.811Z,101403.09
2022-12-25T14:29:40.574Z,101408.88
2022-12-25T14:32:08.449Z,101405.78
2022-12-25T14:34:35.036Z,101402.38
2022-12-25T14:37:03.541Z,101388.38
2022-12-25T14:39:35.421Z,101394.09
2022-12-25T14:42:20.995Z,101405.25
2022-12-25T14:45:26.466Z,101401.63
2022-12-25T14:48:03.027Z,101405.19
2022-12-25T14:50:40.123Z,101404.66
2022-12-25T14:53:24.590Z,101396.63
2022-12-25T14:55:56.093Z,101403.41
2022-12-25T14:58:26.819Z,101398.19
2022-12-25T15:01:05.795Z,101393.81
2022-12-25T15:03:37.368Z,101397.72
2022-12-25T15:06:06.975Z,101385.03
2022-12-25T15:08:38.124Z,101368.72
2022-12-25T15:11:10.618Z,101365.34
2022-12-25T15:13:41.980Z,101367.94
2022-12-25T15:16:25.843Z,101376.19
2022-12-25T15:19:03.233Z,101369.53
2022-12-25T15:21:34.986Z,101378.44
2022-12-25T15:24:08.630Z,101370.59
2022-12-25T15:26:37.498Z,101381.22
2022-12-25T15:29:12.893Z,101376.41
2022-12-25T15:31:49.992Z,101380.34
2022-12-25T15:34:48.151Z,101381.44
2022-12-25T15:37:26.183Z,101388.41
2022-12-25T15:39:53.647Z,101379.13
2022-12-25T15:42:25.248Z,101386.09
2022-12-25T15:44:59.718Z,101380.91
2022-12-25T15:47:26.578Z,101391.19
2022-12-25T15:49:53.585Z,101393.06
2022-12-25T15:52:21.250Z,101392.66
2022-12-25T15:54:51.149Z,101390.59
2022-12-25T15:57:22.225Z,101388.28
2022-12-25T15:59:49.082Z,101387.22
2022-12-25T16:02:18.049Z,101382.06
2022-12-25T16:04:45.360Z,101381.56
2022-12-25T16:07:17.741Z,101396.03
2022-12-25T16:09:49.744Z,101395.38
2022-12-25T16:12:19.590Z,101388.88
2022-12-25T16:14:48.085Z,101394.88
2022-12-25T16:17:16.342Z,101394.81
2022-12-25T16:19:44.634Z,101392.16
2022-12-25T16:22:21.677Z,101387.72
2022-12-25T16:24:51.778Z,101380.88
2022-12-25T16:27:21.330Z,101380.03
2022-12-25T16:29:48.965Z,101372.53
2022-12-25T16:32:32.784Z,101362.06
2022-12-25T16:35:00.829Z,101356.22
2022-12-25T16:37:27.638Z,101347.28
2022-12-25T16:39:54.144Z,101348.59
2022-12-25T16:42:20.934Z,101351.94
2022-12-25T16:44:47.454Z,101352.19
2022-12-25T16:47:14.176Z,101361.25
2022-12-25T16:49:40.759Z,101348.31
2022-12-25T16:52:07.244Z,101353.22
2022-12-25T16:54:33.912Z,101354.22
2022-12-25T16:57:01.928Z,101348.03
2022-12-25T16:59:29.628Z,101350.13
2022-12-25T17:01:56.351Z,101359.19
2022-12-25T17:04:22.990Z,101346.97
2022-12-25T17:06:49.652Z,101343.38
2022-12-25T17:09:16.216Z,101338.97
2022-12-25T17:11:42.865Z,101346.72
2022-12-25T17:14:14.667Z,101350.88
2022-12-25T17:16:42.164Z,101355.22
2022-12-25T17:19:18.696Z,101352.66
2022-12-25T17:21:47.710Z,101343.81
2022-12-25T17:24:15.191Z,101350.06
2022-12-25T17:26:47.808Z,101343.09
2022-12-25T17:29:21.470Z,101336.84
2022-12-25T17:31:48.913Z,101332.69
2022-12-25T17:34:15.582Z,101342.75
2022-12-25T17:36:42.122Z,101335.75
2022-12-25T17:39:10.250Z,101333.47
2022-12-25T17:41:37.090Z,101335.00
2022-12-25T17:44:05.828Z,101332.34
2022-12-25T17:46:38.851Z,101329.59
2022-12-25T17:49:05.998Z,101322.59
2022-12-25T17:51:32.848Z,101323.09
2022-12-25T17:54:05.809Z,101320.72
2022-12-25T17:56:33.215Z,101318.59
2022-12-25T17:59:03.617Z,101320.66
2022-12-25T18:01:30.300Z,101310.31
2022-12-25T18:03:59.306Z,101303.34
2022-12-25T18:06:27.836Z,101299.22
2022-12-25T18:08:57.873Z,101300.53
2022-12-25T18:11:29.090Z,101300.50
2022-12-25T18:13:57.975Z,101292.97
2022-12-25T18:16:26.509Z,101298.66
2022-12-25T18:18:53.492Z,101290.84
2022-12-25T18:21:21.312Z,101294.78
2022-12-25T18:23:48.065Z,101306.97
2022-12-25T18:26:16.999Z,101304.41
2022-12-25T18:28:43.948Z,101301.81
2022-12-25T18:31:13.716Z,101299.75
2022-12-25T18:33:40.796Z,101296.16
2022-12-25T18:36:10.222Z,101290.19
2022-12-25T18:38:39.712Z,101291.72
2022-12-25T18:41:07.849Z,101286.56
2022-12-25T18:43:52.320Z,101280.59
2022-12-25T18:46:22.357Z,101282.94
2022-12-25T18:48:49.194Z,101272.31
2022-12-25T18:51:15.771Z,101272.31
2022-12-25T18:53:43.776Z,101267.97
2022-12-25T18:56:15.531Z,101260.97
2022-12-25T18:58:42.309Z,101269.00
2022-12-25T19:01:19.374Z,101264.88
2022-12-25T19:03:48.406Z,101255.25
2022-12-25T19:06:28.945Z,101250.09
2022-12-25T19:08:57.330Z,101254.00
2022-12-25T19:11:23.863Z,101247.78
2022-12-25T19:13:50.441Z,101246.50
2022-12-25T19:16:17.116Z,101239.25
2022-12-25T19:18:45.985Z,101243.41
2022-12-25T19:21:12.652Z,101241.56
2022-12-25T19:23:40.625Z,101233.78
2022-12-25T19:26:08.824Z,101228.09
2022-12-25T19:28:36.500Z,101223.66
2022-12-25T19:31:04.279Z,101222.38
2022-12-25T19:33:31.897Z,101223.16
2022-12-25T19:36:05.004Z,101217.47
2022-12-25T19:38:31.653Z,101221.88
2022-12-25T19:41:01.272Z,101210.44
2022-12-25T19:43:34.888Z,101208.34
2022-12-25T19:46:02.519Z,101210.94
2022-12-25T19:48:30.012Z,101211.47
2022-12-25T19:51:31.219Z,101206.53
2022-12-25T19:53:57.942Z,101209.38
2022-12-25T19:56:26.464Z,101209.13
2022-12-25T19:58:54.413Z,101213.53
2022-12-25T20:01:23.516Z,101211.25
2022-12-25T20:04:18.171Z,101210.44
2022-12-25T20:06:44.977Z,101205.00
2022-12-25T20:09:14.270Z,101203.97
2022-12-25T20:11:50.285Z,101192.03
2022-12-25T20:14:21.075Z,101196.97
2022-12-25T20:16:47.707Z,101197.72
2022-12-25T20:19:14.751Z,101188.66
2022-12-25T20:21:42.513Z,101183.47
2022-12-25T20:24:11.344Z,101186.56
2022-12-25T20:26:40.965Z,101194.09
2022-12-25T20:29:07.722Z,101191.00
2022-12-25T20:31:35.546Z,101181.38
2022-12-25T20:34:09.842Z,101179.84
2022-12-25T20:36:40.330Z,101180.88
2022-12-25T20:39:09.599Z,101199.56
2022-12-25T20:41:37.014Z,101198.25
2022-12-25T20:44:04.285Z,101190.47
2022-12-25T20:46:32.388Z,101197.25
2022-12-25T20:48:58.992Z,101190.47
2022-12-25T20:51:27.194Z,101190.47
2022-12-25T20:53:54.463Z,101167.13
2022-12-25T20:56:24.085Z,101178.53
2022-12-25T20:58:58.801Z,101165.31
2022-12-25T21:01:25.747Z,101157.53
2022-12-25T21:03:53.158Z,101159.34
2022-12-25T21:06:20.195Z,101159.88
2022-12-25T21:08:46.810Z,101143.50
2022-12-25T21:11:15.647Z,101142.75
2022-12-25T21:13:43.592Z,101139.88
2022-12-25T21:16:13.252Z,101133.66
2022-12-25T21:18:39.812Z,101139.63
2022-12-25T21:21:07.927Z,101135.22
2022-12-25T21:23:35.676Z,101137.28
2022-12-25T21:26:24.178Z,101127.69
2022-12-25T21:29:54.524Z,101125.34
2022-12-25T21:32:42.462Z,101129.00
2022-12-25T21:35:10.439Z,101113.94
2022-12-25T21:37:36.993Z,101104.59
2022-12-25T21:40:04.314Z,101089.28
2022-12-25T21:42:30.890Z,101085.38
2022-12-25T21:44:57.454Z,101083.59
2022-12-25T21:47:24.013Z,101085.38
2022-12-25T21:50:11.099Z,101069.03
2022-12-25T21:52:37.666Z,101064.63
2022-12-25T21:55:04.392Z,101049.84
2022-12-25T21:57:33.281Z,101053.19
2022-12-25T22:00:00.154Z,101043.88
2022-12-25T22:02:27.117Z,101044.38
2022-12-25T22:04:53.846Z,101040.75
2022-12-25T22:07:22.152Z,101037.13
2022-12-25T22:09:52.733Z,101038.91
2022-12-25T22:12:38.789Z,101029.53
2022-12-25T22:15:10.218Z,101024.34
2022-12-25T22:18:01.069Z,101029.84
2022-12-25T22:20:34.643Z,101012.19
2022-12-25T22:23:03.127Z,101004.38
2022-12-25T22:25:29.732Z,100996.34
2022-12-25T22:27:56.292Z,100993.50
2022-12-25T22:30:34.189Z,100998.94
2022-12-25T22:33:05.176Z,100979.22
2022-12-25T22:35:33.772Z,100978.69
2022-12-25T22:38:01.538Z,100975.31
2022-12-25T22:40:28.114Z,100969.34
2022-12-25T22:42:56.452Z,100957.91
2022-12-25T22:45:23.742Z,100960.50
2022-12-25T22:47:52.309Z,100951.66
2022-12-25T22:50:18.862Z,100949.34
2022-12-25T22:52:51.265Z,100967.25
2022-12-25T22:55:20.905Z,100959.44
2022-12-25T22:57:48.909Z,100965.66
2022-12-25T23:00:15.934Z,100966.22
2022-12-25T23:02:42.730Z,100961.78
2022-12-25T23:05:10.701Z,100952.72
2022-12-25T23:07:41.948Z,100959.75
2022-12-25T23:10:11.770Z,100950.38
2022-12-25T23:12:56.925Z,100950.34
2022-12-25T23:15:24.529Z,100939.97
2022-12-25T23:18:10.039Z,100938.97
2022-12-25T23:20:55.339Z,100939.72
2022-12-25T23:23:40.304Z,100946.72
2022-12-25T23:26:09.778Z,100948.81
2022-12-25T23:28:56.895Z,100943.84
2022-12-25T23:31:27.793Z,100941.25
2022-12-25T23:33:54.740Z,100947.50
2022-12-25T23:36:23.920Z,100944.38
2022-12-25T23:38:52.020Z,100941.25
2022-12-25T23:41:19.734Z,100931.38
2022-12-25T23:43:46.283Z,100937.59
2022-12-25T23:46:12.878Z,100939.44
2022-12-25T23:48:39.441Z,100926.16
2022-12-25T23:51:07.827Z,100921.75
2022-12-25T23:53:35.223Z,100924.06
2022-12-25T23:56:02.094Z,100919.63
2022-12-25T23:58:29.307Z,100925.34
